AEY weather

Akureyri Airport
Akureyri, Northeastern Region, Iceland

Public forecast

Using degrees Celsius for public forecast. Weather courtesy of forecast.io.

Current aviation weather report (METAR) for Akureyri Airport

Retrieved 2020/06/06 23:00 UTC (47 minutes ago):

BIAR 062300Z 00000KT CAVOK 05/02 Q1018 RMK WIND VADLAHEIDI 33806KT

Aviation forecast (TAF) for Akureyri Airport

Retrieved 2020/06/06 21:17 UTC (2 hours ago):

TAF BIAR 061913Z 0621/0721 34010KT 9999 SCT040 TX13/0715Z TN03/0703Z BECMG 0621/0623 VRB03KT